Time;durP1;ratioP1;P1;durP2;ratioP2;P2;SDS_P1;SDS_P2;PMS_P1;PMS_P2;Temp;Humidity;BMP_temperature;BMP_pressure;BME280_temperature;BME280_humidity;BME280_pressure;Samples;Min_cycle;Max_cycle;Signal;HPM_P1;HPM_P2
2023/03/28 00:01:08;;;;;;;27.10;7.10;;;;;;;13.46;61.39;99591.61;109464;1272;1002514;-49
2023/03/28 00:03:41;;;;;;;22.30;6.20;;;;;;;13.41;61.53;99582.10;110223;1272;22319;-49
2023/03/28 00:06:15;;;;;;;23.30;6.40;;;;;;;13.36;61.72;99579.10;110164;1273;22115;-49
2023/03/28 00:08:44;;;;;;;23.10;6.10;;;;;;;13.30;62.13;99573.63;110481;1276;22302;-49
2023/03/28 00:11:20;;;;;;;24.00;5.70;;;;;;;13.29;62.35;99570.77;110200;1276;22320;-49
2023/03/28 00:13:56;;;;;;;27.20;7.10;;;;;;;13.26;62.59;99567.39;110114;1276;22427;-50
2023/03/28 00:16:31;;;;;;;32.00;6.80;;;;;;;13.25;62.79;99568.52;110529;1269;23044;-49
2023/03/28 00:19:03;;;;;;;20.90;6.30;;;;;;;13.21;63.12;99605.64;110320;1276;23015;-49
2023/03/28 00:21:33;;;;;;;22.10;6.40;;;;;;;13.19;63.52;99602.05;110109;1273;22193;-49
2023/03/28 00:24:03;;;;;;;26.90;7.00;;;;;;;13.21;63.60;99606.67;110451;1269;22238;-50
2023/03/28 00:26:34;;;;;;;22.60;6.70;;;;;;;13.23;63.64;99595.59;110126;1273;22320;-49
2023/03/28 00:29:04;;;;;;;26.00;7.40;;;;;;;13.26;63.74;99572.48;110477;1276;22290;-48
2023/03/28 00:31:33;;;;;;;20.70;5.40;;;;;;;13.26;63.82;99558.02;110473;1269;23161;-49
2023/03/28 00:34:02;;;;;;;32.00;7.60;;;;;;;13.27;63.89;99549.27;110510;1269;22422;-49
2023/03/28 00:36:31;;;;;;;26.20;7.10;;;;;;;13.27;63.93;99545.27;110479;1276;22194;-49
2023/03/28 00:39:01;;;;;;;27.80;7.10;;;;;;;13.26;63.89;99541.27;110469;1268;22367;-49
2023/03/28 00:41:41;;;;;;;25.10;6.90;;;;;;;13.26;63.96;99539.01;110491;1269;22323;-49
2023/03/28 00:44:40;;;;;;;33.60;7.20;;;;;;;13.25;64.01;99531.60;110499;1275;22938;-48
2023/03/28 00:47:14;;;;;;;27.70;6.50;;;;;;;13.23;64.01;99519.72;109897;1283;22249;-48
2023/03/28 00:49:43;;;;;;;33.00;7.30;;;;;;;13.20;64.10;99515.12;109922;1283;22144;-49
2023/03/28 00:52:14;;;;;;;23.20;6.00;;;;;;;13.19;64.10;99504.90;109938;1276;22291;-49
2023/03/28 00:54:43;;;;;;;30.30;6.10;;;;;;;13.18;64.14;99496.81;109899;1275;22982;-49
2023/03/28 00:57:11;;;;;;;25.80;6.70;;;;;;;13.16;64.15;99497.09;109846;1283;22179;-49
2023/03/28 00:59:40;;;;;;;20.40;6.50;;;;;;;13.12;64.39;99500.95;109917;1277;22377;-49
2023/03/28 01:02:09;;;;;;;32.60;8.30;;;;;;;13.13;64.51;99493.59;109921;1276;22171;-48
2023/03/28 01:04:48;;;;;;;19.40;6.80;;;;;;;13.14;64.51;99486.93;109800;1279;22445;-49
2023/03/28 01:07:20;;;;;;;;;;;;;;;13.15;64.59;99476.23;109942;1278;22465;-49
2023/03/28 01:09:49;;;;;;;35.60;6.80;;;;;;;13.14;64.65;99466.70;109076;1275;1002452;-50
2023/03/28 01:12:17;;;;;;;25.80;6.50;;;;;;;13.13;64.71;99463.45;109727;1281;23032;-48
2023/03/28 01:14:47;;;;;;;19.90;5.80;;;;;;;13.12;64.81;99450.97;109921;1276;22208;-49
2023/03/28 01:17:15;;;;;;;28.80;7.00;;;;;;;13.13;64.64;99452.11;109890;1283;22446;-49
2023/03/28 01:19:59;;;;;;;20.50;5.70;;;;;;;13.12;64.70;99452.36;109913;1284;22296;-49
2023/03/28 01:23:06;;;;;;;21.40;6.20;;;;;;;13.08;64.86;99450.80;109844;1279;22339;-49
2023/03/28 01:25:53;;;;;;;27.60;6.90;;;;;;;13.02;65.02;99449.33;110363;1275;22358;-49
2023/03/28 01:28:22;;;;;;;29.00;7.10;;;;;;;12.97;65.25;99443.70;110335;1272;23015;-49
2023/03/28 01:31:22;;;;;;;25.20;6.50;;;;;;;12.93;65.29;99436.76;110452;1276;22090;-49
2023/03/28 01:34:28;;;;;;;24.70;5.70;;;;;;;12.89;65.47;99430.52;110406;1276;22316;-49
2023/03/28 01:37:27;;;;;;;23.80;8.10;;;;;;;12.86;65.62;99420.79;110230;1276;22295;-49
2023/03/28 01:40:26;;;;;;;21.80;5.50;;;;;;;12.80;65.77;99407.84;110160;1276;22269;-49
2023/03/28 01:43:24;;;;;;;25.00;8.10;;;;;;;12.78;65.90;99401.04;110421;1276;22130;-49
2023/03/28 01:46:10;;;;;;;19.70;7.00;;;;;;;12.74;65.96;99394.77;110355;1272;22159;-49
2023/03/28 01:49:18;;;;;;;23.50;6.30;;;;;;;12.71;66.20;99396.02;110375;1276;22128;-49
2023/03/28 01:52:24;;;;;;;24.10;6.70;;;;;;;12.68;66.38;99388.64;109956;1277;23235;-50
2023/03/28 01:55:17;;;;;;;30.10;7.50;;;;;;;12.66;66.35;99380.40;109923;1277;22826;-50
2023/03/28 01:58:18;;;;;;;27.40;7.20;;;;;;;12.64;66.63;99378.27;109966;1275;22308;-49
2023/03/28 02:00:58;;;;;;;28.80;8.00;;;;;;;12.61;66.74;99375.08;109258;1290;22181;-50
2023/03/28 02:03:36;;;;;;;30.60;8.50;;;;;;;12.60;66.86;99373.39;109266;1286;22323;-50
2023/03/28 02:06:12;;;;;;;24.30;7.90;;;;;;;12.60;66.94;99372.36;109429;1290;22130;-51
2023/03/28 02:08:42;;;;;;;20.70;5.80;;;;;;;12.61;67.06;99367.80;109543;1283;22335;-50
2023/03/28 02:11:23;;;;;;;20.10;6.10;;;;;;;12.61;66.98;99360.15;109299;1290;22379;-50
2023/03/28 02:14:29;;;;;;;35.10;7.30;;;;;;;12.59;67.15;99354.33;109231;1290;22973;-51
2023/03/28 02:17:26;;;;;;;30.10;7.80;;;;;;;12.50;67.46;99348.74;109549;1283;22317;-51
2023/03/28 02:20:28;;;;;;;27.80;7.60;;;;;;;12.53;67.65;99343.19;108977;1292;23263;-52
2023/03/28 02:23:06;;;;;;;21.70;7.30;;;;;;;12.53;67.79;99336.94;109251;1292;22408;-52
2023/03/28 02:25:47;;;;;;;29.30;8.00;;;;;;;12.53;67.82;99317.27;109265;1285;22890;-52
2023/03/28 02:28:41;;;;;;;37.10;9.80;;;;;;;12.52;68.13;99302.38;109328;1280;22357;-53
2023/03/28 02:31:28;;;;;;;30.10;8.40;;;;;;;12.51;68.19;99292.66;109570;1280;23308;-52
2023/03/28 02:33:57;;;;;;;35.60;8.90;;;;;;;12.51;68.22;99287.84;109623;1280;22244;-54
2023/03/28 02:36:51;;;;;;;30.80;8.50;;;;;;;12.51;68.27;99287.48;109755;1280;22198;-52
2023/03/28 02:39:27;;;;;;;25.60;8.10;;;;;;;12.50;68.28;99277.04;109721;1287;22188;-52
2023/03/28 02:42:07;;;;;;;35.80;7.40;;;;;;;12.50;68.38;99270.45;109705;1279;22220;-52
2023/03/28 02:44:40;;;;;;;24.00;7.20;;;;;;;12.49;68.56;99268.40;109717;1279;22188;-53
2023/03/28 02:47:27;;;;;;;27.40;6.80;;;;;;;12.52;68.60;99268.12;109704;1280;22217;-52
2023/03/28 02:49:58;;;;;;;32.90;8.70;;;;;;;12.52;68.66;99268.28;109680;1284;22338;-52
2023/03/28 02:52:50;;;;;;;30.00;9.10;;;;;;;12.54;68.87;99264.50;109730;1280;22199;-52
2023/03/28 02:55:43;;;;;;;34.40;8.70;;;;;;;12.58;68.97;99259.59;109693;1279;22146;-52
2023/03/28 02:58:46;;;;;;;39.70;9.40;;;;;;;12.62;69.08;99253.30;108834;1294;22433;-52
2023/03/28 03:01:14;;;;;;;34.60;9.30;;;;;;;12.66;69.07;99244.39;109136;1289;22177;-52
2023/03/28 03:03:44;;;;;;;39.40;8.90;;;;;;;12.69;69.19;99245.21;108915;1289;22260;-52
2023/03/28 03:06:13;;;;;;;29.00;8.80;;;;;;;12.73;69.14;99241.70;109131;1286;22193;-52
2023/03/28 03:08:41;;;;;;;36.10;9.50;;;;;;;12.76;69.16;99242.05;109115;1286;22179;-52
2023/03/28 03:11:10;;;;;;;32.90;9.50;;;;;;;12.80;69.17;99236.14;109010;1294;22302;-52
2023/03/28 03:13:39;;;;;;;35.60;9.20;;;;;;;12.78;69.36;99236.73;109133;1287;22284;-52
2023/03/28 03:16:08;;;;;;;31.80;8.30;;;;;;;12.75;69.62;99236.55;109278;1285;22954;-52
2023/03/28 03:18:37;;;;;;;28.50;8.50;;;;;;;12.85;69.33;99234.97;109784;1278;22180;-52
2023/03/28 03:21:05;;;;;;;33.80;8.30;;;;;;;12.89;69.29;99237.84;109580;1278;213667;-52
2023/03/28 03:23:36;;;;;;;27.80;8.50;;;;;;;12.93;69.19;99234.71;109819;1285;22399;-52
2023/03/28 03:26:05;;;;;;;26.00;8.50;;;;;;;12.95;69.23;99227.95;109739;1278;22376;-53
2023/03/28 03:28:41;;;;;;;28.30;7.70;;;;;;;12.97;69.18;99222.42;109806;1285;22359;-51
2023/03/28 03:31:10;;;;;;;30.90;8.00;;;;;;;12.98;69.16;99211.22;109786;1278;22368;-52
2023/03/28 03:34:06;;;;;;;27.00;7.20;;;;;;;13.00;69.27;99206.10;109772;1278;22169;-53
2023/03/28 03:36:39;;;;;;;28.10;7.80;;;;;;;13.00;69.30;99202.95;110096;1274;22114;-52
2023/03/28 03:39:08;;;;;;;31.70;8.90;;;;;;;13.01;69.22;99196.78;110362;1271;22187;-52
2023/03/28 03:41:37;;;;;;;32.40;9.00;;;;;;;13.03;69.16;99190.59;110182;1269;22887;-52
2023/03/28 03:44:06;;;;;;;29.60;8.80;;;;;;;13.03;69.21;99190.59;110384;1272;22367;-52
2023/03/28 03:46:34;;;;;;;25.80;7.80;;;;;;;13.04;69.25;99179.42;110345;1273;22842;-53
2023/03/28 03:49:08;;;;;;;25.60;6.70;;;;;;;13.04;69.35;99168.61;110134;1273;22123;-53
2023/03/28 03:51:38;;;;;;;25.90;8.20;;;;;;;13.04;69.36;99162.54;110375;1269;22287;-53
2023/03/28 03:54:07;;;;;;;25.20;7.60;;;;;;;13.04;69.41;99161.14;110428;1269;22328;-53
2023/03/28 03:56:38;;;;;;;27.30;7.90;;;;;;;13.05;69.48;99159.55;110373;1274;22813;-55
2023/03/28 03:59:06;;;;;;;21.70;7.50;;;;;;;13.04;69.51;99164.77;110362;1268;22155;-53
2023/03/28 04:01:42;;;;;;;23.90;6.70;;;;;;;13.05;69.54;99167.36;110353;1269;23205;-53
2023/03/28 04:04:26;;;;;;;17.50;6.10;;;;;;;13.06;69.60;99162.76;110478;1275;23086;-54
2023/03/28 04:07:03;;;;;;;20.20;6.40;;;;;;;13.07;69.62;99159.95;110083;1275;23146;-54
2023/03/28 04:09:31;;;;;;;18.20;6.30;;;;;;;13.07;69.57;99162.38;110399;1276;22128;-53
2023/03/28 04:12:04;;;;;;;25.40;8.10;;;;;;;13.06;69.65;99160.48;110325;1274;22307;-54
2023/03/28 04:14:42;;;;;;;24.20;7.60;;;;;;;13.08;69.76;99155.93;110392;1270;22801;-54
2023/03/28 04:17:33;;;;;;;21.80;7.70;;;;;;;13.09;69.67;99152.35;110154;1275;22146;-54
2023/03/28 04:20:13;;;;;;;29.40;8.10;;;;;;;13.10;69.61;99147.61;110396;1276;22098;-54
2023/03/28 04:23:04;;;;;;;22.70;8.60;;;;;;;13.12;69.58;99147.02;110412;1268;23180;-54
2023/03/28 04:25:34;;;;;;;24.50;7.50;;;;;;;13.14;69.58;99148.27;110548;1269;23063;-54
2023/03/28 04:28:24;;;;;;;20.90;7.90;;;;;;;13.15;69.48;99148.70;110472;1269;22401;-54
2023/03/28 04:30:58;;;;;;;22.00;6.80;;;;;;;13.15;69.46;99148.52;110440;1269;22362;-54
2023/03/28 04:33:33;;;;;;;23.00;8.80;;;;;;;13.17;69.29;99148.27;110512;1275;22125;-55
2023/03/28 04:36:04;;;;;;;26.40;8.70;;;;;;;13.18;69.31;99145.95;110475;1270;22866;-54
2023/03/28 04:38:36;;;;;;;23.50;8.30;;;;;;;13.18;69.18;99143.66;110431;1269;22334;-54
2023/03/28 04:41:25;;;;;;;;;;;;;;;13.20;69.14;99145.81;110214;1275;22432;-56
2023/03/28 04:44:28;;;;;;;30.40;9.10;;;;;;;13.21;68.99;99145.93;109974;1276;22420;-55
2023/03/28 04:47:01;;;;;;;20.60;8.00;;;;;;;13.20;69.12;99146.33;110347;1268;22598;-54
2023/03/28 04:49:30;;;;;;;9.10;3.60;;;;;;;13.21;69.34;99149.42;110155;1276;22375;-54
2023/03/28 04:52:00;;;;;;;4.80;2.10;;;;;;;13.24;69.41;99146.31;110151;1275;23293;-54
2023/03/28 04:54:29;;;;;;;2.10;1.20;;;;;;;13.26;69.48;99147.36;110409;1270;22117;-55
2023/03/28 04:57:05;;;;;;;1.70;1.50;;;;;;;13.29;69.53;99153.30;110159;1275;22356;-55
2023/03/28 04:59:42;;;;;;;2.00;1.00;;;;;;;13.32;69.57;99156.95;110437;1270;22341;-54
2023/03/28 05:02:15;;;;;;;1.50;0.90;;;;;;;13.35;69.46;99155.02;110287;1276;22261;-54
2023/03/28 05:04:52;;;;;;;0.90;0.80;;;;;;;13.38;69.39;99157.43;110132;1275;22092;-54
2023/03/28 05:07:20;;;;;;;1.40;1.10;;;;;;;13.40;69.35;99158.02;110409;1269;22144;-54
2023/03/28 05:09:49;;;;;;;1.90;1.30;;;;;;;13.41;69.21;99155.04;110424;1269;22413;-55
2023/03/28 05:12:20;;;;;;;1.90;1.20;;;;;;;13.40;69.20;99157.85;110350;1272;22343;-54
2023/03/28 05:15:03;;;;;;;1.90;1.40;;;;;;;13.41;69.17;99160.39;110384;1276;22128;-55
2023/03/28 05:17:33;;;;;;;2.60;1.30;;;;;;;13.43;69.16;99164.10;110406;1268;22593;-55
2023/03/28 05:20:21;;;;;;;1.00;0.90;;;;;;;13.44;69.10;99168.05;110351;1276;22429;-54
2023/03/28 05:22:52;;;;;;;2.30;1.00;;;;;;;13.46;69.03;99172.52;110156;1273;22912;-54
2023/03/28 05:25:20;;;;;;;2.20;0.90;;;;;;;13.44;68.89;99182.86;110524;1269;23079;-54
2023/03/28 05:27:50;;;;;;;3.60;1.20;;;;;;;13.41;68.84;99186.55;110174;1273;22190;-54
2023/03/28 05:30:18;;;;;;;1.40;1.00;;;;;;;13.39;68.77;99187.89;110371;1276;22266;-54
2023/03/28 05:32:48;;;;;;;1.40;1.10;;;;;;;13.37;68.65;99195.98;110100;1269;22284;-54
2023/03/28 05:35:16;;;;;;;1.10;0.60;;;;;;;13.36;68.27;99208.25;110070;1275;22390;-53
2023/03/28 05:37:45;;;;;;;1.30;0.70;;;;;;;13.32;67.83;99211.29;110427;1276;22282;-53
2023/03/28 05:40:14;;;;;;;1.00;0.60;;;;;;;13.29;67.47;99219.50;110393;1276;22870;-54
2023/03/28 05:42:43;;;;;;;0.60;0.40;;;;;;;13.24;67.03;99236.80;110417;1269;22322;-53
2023/03/28 05:45:16;;;;;;;0.80;0.50;;;;;;;13.18;66.73;99246.95;110238;1272;22389;-53
2023/03/28 05:48:07;;;;;;;0.70;0.60;;;;;;;13.12;66.35;99265.36;110105;1272;22231;-53
2023/03/28 05:50:39;;;;;;;0.70;0.60;;;;;;;13.05;65.68;99282.08;110047;1274;22356;-52
2023/03/28 05:53:07;;;;;;;1.00;0.60;;;;;;;12.95;65.05;99293.25;109886;1278;22618;-52
2023/03/28 05:55:36;;;;;;;0.60;0.50;;;;;;;12.85;64.25;99311.20;110072;1273;22421;-52
2023/03/28 05:58:06;;;;;;;0.90;0.40;;;;;;;12.70;63.08;99324.33;110053;1272;23114;-52
2023/03/28 06:00:41;;;;;;;0.90;0.60;;;;;;;12.53;62.47;99333.11;109292;1273;1002449;-52
2023/03/28 06:03:10;;;;;;;0.60;0.50;;;;;;;12.38;62.39;99344.11;110017;1280;22388;-51
2023/03/28 06:05:44;;;;;;;1.20;0.70;;;;;;;12.26;62.22;99356.42;109201;1277;1002481;-51
2023/03/28 06:08:24;;;;;;;1.30;0.70;;;;;;;12.15;62.05;99358.55;110042;1275;22167;-51
2023/03/28 06:10:59;;;;;;;0.60;0.60;;;;;;;12.05;61.95;99373.12;110045;1280;22311;-51
2023/03/28 06:13:32;;;;;;;0.90;0.50;;;;;;;11.95;61.95;99386.85;110030;1275;22319;-51
2023/03/28 06:16:00;;;;;;;2.10;0.40;;;;;;;11.84;61.80;99396.39;110013;1278;22144;-50
2023/03/28 06:18:32;;;;;;;1.30;0.80;;;;;;;11.73;61.44;99403.70;110086;1276;22465;-50
2023/03/28 06:21:01;;;;;;;1.00;0.50;;;;;;;11.63;61.59;99412.67;110137;1274;22396;-50
2023/03/28 06:23:29;;;;;;;1.90;0.50;;;;;;;11.55;61.47;99413.26;110322;1272;23310;-51
2023/03/28 06:25:59;;;;;;;2.60;0.50;;;;;;;11.48;61.54;99434.38;110437;1269;22431;-50
2023/03/28 06:28:32;;;;;;;1.70;0.50;;;;;;;11.39;61.48;99431.52;110399;1276;22393;-50
2023/03/28 06:31:18;;;;;;;0.70;0.40;;;;;;;11.28;61.66;99429.23;109679;1272;1002646;-51
2023/03/28 06:33:47;;;;;;;1.60;0.80;;;;;;;11.21;61.93;99430.11;110130;1276;22492;-51
2023/03/28 06:36:20;;;;;;;1.00;0.50;;;;;;;11.14;61.99;99432.11;110439;1269;22396;-50
2023/03/28 06:38:51;;;;;;;1.50;0.70;;;;;;;11.08;61.90;99444.92;110331;1272;22393;-51
2023/03/28 06:41:19;;;;;;;0.50;0.50;;;;;;;11.01;62.18;99454.09;109587;1272;1002157;-51
2023/03/28 06:43:48;;;;;;;2.10;0.40;;;;;;;10.98;62.15;99458.21;109640;1276;1002750;-51
2023/03/28 06:46:41;;;;;;;0.60;0.60;;;;;;;10.94;62.17;99467.20;110557;1272;22132;-50
2023/03/28 06:49:11;;;;;;;1.20;0.60;;;;;;;10.91;62.12;99473.78;110347;1271;23146;-50
2023/03/28 06:51:58;;;;;;;0.60;0.60;;;;;;;10.89;62.43;99479.61;110544;1269;22134;-50
2023/03/28 06:54:27;;;;;;;0.50;0.50;;;;;;;10.85;62.17;99488.09;110416;1276;22196;-50
2023/03/28 06:56:56;;;;;;;0.60;0.50;;;;;;;10.82;62.37;99490.97;110520;1276;22163;-49
2023/03/28 06:59:25;;;;;;;0.40;0.40;;;;;;;10.81;62.21;99506.31;110116;1273;22379;-49
2023/03/28 07:01:57;;;;;;;0.90;0.40;;;;;;;10.79;62.24;99522.02;110460;1276;22268;-50
2023/03/28 07:04:33;;;;;;;0.50;0.30;;;;;;;10.81;62.56;99534.59;109556;1276;1002929;-48
2023/03/28 07:07:03;;;;;;;0.20;0.20;;;;;;;10.85;62.42;99546.55;110304;1276;22144;-49
2023/03/28 07:09:31;;;;;;;1.10;0.50;;;;;;;10.91;62.36;99553.09;110104;1274;22378;-49
2023/03/28 07:12:11;;;;;;;1.40;1.00;;;;;;;10.96;61.50;99554.58;110139;1276;22809;-50
2023/03/28 07:14:43;;;;;;;0.80;0.50;;;;;;;10.98;60.78;99558.14;110311;1276;22227;-50
2023/03/28 07:17:11;;;;;;;0.80;0.50;;;;;;;10.99;60.82;99566.95;110196;1275;22141;-49
2023/03/28 07:19:44;;;;;;;0.40;0.40;;;;;;;11.01;60.64;99575.75;110447;1272;22733;-49
